createdAt,value
2018-12-01T00:00:43.915Z,23.21
2018-12-01T00:03:13.725Z,23.42
2018-12-01T00:05:58.509Z,23.83
2018-12-01T00:08:28.333Z,23.32
2018-12-01T00:10:58.028Z,23.83
2018-12-01T00:13:27.777Z,23.61
2018-12-01T00:15:57.588Z,23.67
2018-12-01T00:18:27.402Z,23.61
2018-12-01T00:20:57.301Z,23.74
2018-12-01T00:23:26.932Z,24.44
2018-12-01T00:25:56.562Z,24.16
2018-12-01T00:28:26.546Z,23.87
2018-12-01T00:30:56.246Z,24.70
2018-12-01T00:33:26.053Z,24.18
2018-12-01T00:35:55.738Z,24.81
2018-12-01T00:38:25.537Z,24.90
2018-12-01T00:40:55.225Z,24.86
2018-12-01T00:43:24.963Z,24.44
2018-12-01T00:45:54.713Z,25.16
2018-12-01T00:48:24.483Z,24.46
2018-12-01T00:50:54.333Z,24.82
2018-12-01T00:53:24.102Z,24.60
2018-12-01T00:55:53.963Z,25.03
2018-12-01T00:58:23.769Z,25.26
2018-12-01T01:00:53.528Z,25.81
2018-12-01T01:03:23.391Z,25.00
2018-12-01T01:05:53.202Z,25.53
2018-12-01T01:08:22.983Z,25.40
2018-12-01T01:10:52.830Z,26.36
2018-12-01T01:13:22.540Z,25.34
2018-12-01T01:15:52.351Z,25.97
2018-12-01T01:18:21.858Z,26.48
2018-12-01T01:20:51.663Z,25.74
2018-12-01T01:23:21.471Z,26.29
2018-12-01T01:25:51.241Z,25.23
2018-12-01T01:28:21.020Z,25.92
2018-12-01T01:30:50.802Z,26.20
2018-12-01T01:33:31.497Z,25.79
2018-12-01T01:36:01.568Z,26.06
2018-12-01T01:38:31.479Z,25.96
2018-12-01T01:41:06.172Z,26.49
2018-12-01T01:43:36.517Z,26.56
2018-12-01T01:46:06.331Z,26.30
2018-12-01T01:48:37.057Z,26.99
2018-12-01T01:51:07.119Z,28.11
2018-12-01T01:53:36.869Z,26.85
2018-12-01T01:56:06.817Z,27.46
2018-12-01T01:58:36.565Z,27.12
2018-12-01T02:01:06.642Z,27.54
2018-12-01T02:03:36.387Z,27.58
2018-12-01T02:06:06.505Z,27.53
2018-12-01T02:08:36.425Z,27.89
2018-12-01T02:11:06.510Z,28.23
2018-12-01T02:13:36.219Z,27.66
2018-12-01T02:16:06.058Z,27.90
2018-12-01T02:18:35.757Z,28.44
2018-12-01T02:21:06.398Z,28.64
2018-12-01T02:23:36.100Z,27.91
2018-12-01T02:26:05.995Z,28.68
2018-12-01T02:28:35.791Z,28.43
2018-12-01T02:31:05.679Z,28.68
2018-12-01T02:33:35.306Z,28.83
2018-12-01T02:36:04.992Z,28.46
2018-12-01T02:38:34.774Z,28.51
2018-12-01T02:41:04.687Z,28.68
2018-12-01T02:43:34.501Z,28.94
2018-12-01T02:47:12.715Z,29.59
2018-12-01T02:49:42.558Z,28.50
2018-12-01T02:52:12.273Z,28.81
2018-12-01T02:54:41.981Z,28.75
2018-12-01T02:57:11.620Z,28.95
2018-12-01T02:59:41.404Z,29.47
2018-12-01T03:02:11.176Z,29.00
2018-12-01T03:04:41.089Z,29.56
2018-12-01T03:07:10.901Z,29.25
2018-12-01T03:09:40.619Z,29.20
2018-12-01T03:12:10.417Z,29.42
2018-12-01T03:14:40.237Z,29.68
2018-12-01T03:17:10.072Z,29.46
2018-12-01T03:19:39.845Z,29.89
2018-12-01T03:22:09.668Z,30.55
2018-12-01T03:24:39.481Z,30.61
2018-12-01T03:27:09.338Z,30.94
2018-12-01T03:29:39.389Z,30.72
2018-12-01T03:32:09.046Z,31.33
2018-12-01T03:34:38.866Z,31.26
2018-12-01T03:37:08.577Z,31.53
2018-12-01T03:39:38.289Z,32.05
2018-12-01T03:42:08.093Z,31.28
2018-12-01T03:44:37.803Z,32.26
2018-12-01T03:47:07.510Z,32.32
2018-12-01T03:49:37.289Z,32.16
2018-12-01T03:52:07.187Z,32.59
2018-12-01T03:54:36.983Z,32.36
2018-12-01T03:57:06.836Z,32.20
2018-12-01T03:59:36.576Z,32.49
2018-12-01T04:02:06.588Z,31.86
2018-12-01T04:04:36.307Z,32.47
2018-12-01T04:07:06.341Z,32.45
2018-12-01T04:09:36.093Z,32.84
2018-12-01T04:12:06.004Z,32.26
2018-12-01T04:14:35.645Z,32.67
2018-12-01T04:17:05.649Z,32.70
2018-12-01T04:19:36.014Z,32.84
2018-12-01T04:22:05.957Z,33.37
2018-12-01T04:24:35.781Z,32.42
2018-12-01T04:27:05.672Z,32.96
2018-12-01T04:29:35.399Z,32.99
2018-12-01T04:32:05.214Z,33.05
2018-12-01T04:34:35.530Z,33.95
2018-12-01T04:37:05.360Z,33.46
2018-12-01T04:39:35.002Z,33.43
2018-12-01T04:42:04.596Z,33.57
2018-12-01T04:44:34.302Z,33.55
2018-12-01T04:47:04.056Z,33.06
2018-12-01T04:49:33.872Z,33.65
2018-12-01T04:52:03.710Z,32.99
2018-12-01T04:54:33.488Z,33.73
2018-12-01T04:57:03.330Z,33.72
2018-12-01T04:59:33.120Z,33.85
2018-12-01T05:02:03.012Z,34.23
2018-12-01T05:04:32.876Z,33.89
2018-12-01T05:07:02.671Z,33.92
2018-12-01T05:09:32.454Z,34.20
2018-12-01T05:12:02.469Z,34.08
2018-12-01T05:14:32.244Z,33.62
2018-12-01T05:17:02.093Z,33.76
2018-12-01T05:19:31.878Z,34.12
2018-12-01T05:22:01.650Z,34.19
2018-12-01T05:24:31.393Z,34.26
2018-12-01T05:27:01.345Z,34.45
2018-12-01T05:29:31.186Z,34.61
2018-12-01T05:32:00.997Z,34.43
2018-12-01T05:34:30.742Z,34.62
2018-12-01T05:37:00.475Z,34.59
2018-12-01T05:39:30.260Z,33.67
2018-12-01T05:42:00.038Z,33.98
2018-12-01T05:44:29.773Z,33.66
2018-12-01T05:46:59.556Z,33.93
2018-12-01T05:49:29.369Z,33.60
2018-12-01T05:51:59.154Z,33.33
2018-12-01T05:54:28.897Z,34.48
2018-12-01T05:56:58.695Z,33.98
2018-12-01T05:59:28.484Z,33.99
2018-12-01T06:01:58.381Z,33.66
2018-12-01T06:04:28.203Z,33.52
2018-12-01T06:06:58.509Z,33.66
2018-12-01T06:09:28.377Z,33.00
2018-12-01T06:11:58.093Z,32.77
2018-12-01T06:14:27.885Z,32.78
2018-12-01T06:16:57.545Z,32.94
2018-12-01T06:19:27.476Z,34.13
2018-12-01T06:21:57.197Z,33.99
2018-12-01T06:24:27.023Z,33.62
2018-12-01T06:26:57.553Z,34.04
2018-12-01T06:29:27.358Z,33.50
2018-12-01T06:31:57.109Z,33.27
2018-12-01T06:34:26.918Z,33.66
2018-12-01T06:36:56.721Z,33.38
2018-12-01T06:39:26.524Z,33.26
2018-12-01T06:41:56.220Z,33.50
2018-12-01T06:44:25.973Z,33.69
2018-12-01T06:46:55.845Z,35.20
2018-12-01T06:49:25.656Z,32.99
2018-12-01T06:51:55.630Z,33.73
2018-12-01T06:54:25.505Z,33.71
2018-12-01T06:56:55.265Z,33.82
2018-12-01T06:59:25.094Z,34.14
2018-12-01T07:01:54.881Z,34.19
2018-12-01T07:04:24.719Z,33.57
2018-12-01T07:06:54.510Z,34.18
2018-12-01T07:09:24.353Z,33.78
2018-12-01T07:11:54.134Z,34.01
2018-12-01T07:14:23.954Z,33.98
2018-12-01T07:16:53.946Z,33.39
2018-12-01T07:19:23.673Z,33.74
2018-12-01T07:21:53.478Z,34.19
2018-12-01T07:24:23.229Z,34.00
2018-12-01T07:26:53.585Z,34.40
2018-12-01T07:29:23.433Z,34.51
2018-12-01T07:31:53.267Z,34.02
2018-12-01T07:34:23.045Z,33.82
2018-12-01T07:36:52.942Z,34.33
2018-12-01T07:39:22.737Z,34.03
2018-12-01T07:41:52.473Z,33.73
2018-12-01T07:44:22.269Z,34.18
2018-12-01T07:46:52.067Z,34.14
2018-12-01T07:49:21.697Z,34.23
2018-12-01T07:51:51.488Z,34.59
2018-12-01T07:54:21.263Z,34.58
2018-12-01T07:56:51.080Z,34.14
2018-12-01T07:59:20.887Z,34.41
2018-12-01T08:01:50.700Z,34.23
2018-12-01T08:04:20.493Z,34.74
2018-12-01T08:06:50.293Z,35.06
2018-12-01T08:09:20.132Z,34.59
2018-12-01T08:11:49.906Z,34.50
2018-12-01T08:14:19.689Z,35.04
2018-12-01T08:16:49.570Z,34.37
2018-12-01T08:19:19.380Z,34.48
2018-12-01T08:21:49.159Z,34.73
2018-12-01T08:24:19.137Z,34.53
2018-12-01T08:26:48.842Z,35.40
2018-12-01T08:29:18.601Z,34.84
2018-12-01T08:31:48.361Z,34.98
2018-12-01T08:34:18.149Z,34.67
2018-12-01T08:36:47.756Z,35.00
2018-12-01T08:39:17.505Z,34.81
2018-12-01T08:41:47.209Z,34.95
2018-12-01T08:44:16.815Z,34.76
2018-12-01T08:46:46.517Z,34.97
2018-12-01T08:49:16.203Z,35.61
2018-12-01T08:51:45.972Z,34.72
2018-12-01T08:54:15.653Z,35.02
2018-12-01T08:56:45.482Z,35.34
2018-12-01T08:59:15.277Z,35.10
2018-12-01T09:01:44.985Z,34.71
2018-12-01T09:04:14.705Z,35.20
2018-12-01T09:06:44.584Z,34.85
2018-12-01T09:09:14.388Z,35.34
2018-12-01T09:11:44.956Z,35.52
2018-12-01T09:14:14.857Z,35.49
2018-12-01T09:16:44.701Z,35.58
2018-12-01T09:19:14.555Z,35.73
2018-12-01T09:21:44.292Z,35.10
2018-12-01T09:24:13.985Z,35.41
2018-12-01T09:26:43.819Z,35.30
2018-12-01T09:29:14.606Z,35.46
2018-12-01T09:31:44.392Z,35.42
2018-12-01T09:34:14.301Z,35.41
2018-12-01T09:36:44.090Z,35.80
2018-12-01T09:39:13.757Z,35.78
2018-12-01T09:41:43.548Z,35.44
2018-12-01T09:44:13.373Z,35.81
2018-12-01T09:46:43.161Z,35.67
2018-12-01T09:49:12.940Z,36.00
2018-12-01T09:51:42.657Z,36.28
2018-12-01T09:56:02.995Z,35.85
2018-12-01T09:58:32.770Z,36.08
2018-12-01T10:01:02.745Z,35.92
2018-12-01T10:03:32.333Z,35.61
2018-12-01T10:06:02.169Z,36.31
2018-12-01T10:08:31.877Z,36.20
2018-12-01T10:11:01.686Z,36.87
2018-12-01T10:13:31.503Z,37.58
2018-12-01T10:16:01.397Z,37.00
2018-12-01T10:18:31.193Z,37.37
2018-12-01T10:21:01.123Z,36.41
2018-12-01T10:23:30.921Z,36.71
2018-12-01T10:26:00.689Z,36.16
2018-12-01T10:28:30.439Z,35.59
2018-12-01T10:31:00.312Z,36.66
2018-12-01T10:33:30.032Z,35.98
2018-12-01T10:35:59.730Z,35.67
2018-12-01T10:38:29.448Z,35.79
2018-12-01T10:40:59.325Z,35.62
2018-12-01T10:43:29.036Z,36.54
2018-12-01T10:45:58.691Z,35.98
2018-12-01T10:48:28.401Z,36.31
2018-12-01T10:50:58.010Z,36.34
2018-12-01T10:53:27.703Z,36.29
2018-12-01T10:55:57.580Z,35.86
2018-12-01T10:58:27.389Z,36.18
2018-12-01T11:01:02.333Z,36.42
2018-12-01T11:03:37.084Z,36.12
2018-12-01T11:06:10.594Z,36.25
2018-12-01T11:08:40.292Z,35.90
2018-12-01T11:11:10.151Z,36.27
2018-12-01T11:13:40.658Z,36.34
2018-12-01T11:16:10.602Z,36.00
2018-12-01T11:18:40.356Z,36.60
2018-12-01T11:21:10.094Z,36.63
2018-12-01T11:23:39.761Z,36.84
2018-12-01T11:26:09.589Z,36.93
2018-12-01T11:28:39.149Z,37.11
2018-12-01T11:31:08.904Z,36.66
2018-12-01T11:33:38.496Z,36.21
2018-12-01T11:36:08.216Z,36.61
2018-12-01T11:38:37.882Z,36.73
2018-12-01T11:41:07.592Z,37.19
2018-12-01T11:43:37.321Z,36.38
2018-12-01T11:46:07.113Z,36.98
2018-12-01T11:48:36.788Z,36.75
2018-12-01T11:51:06.773Z,36.51
2018-12-01T11:53:36.511Z,36.76
2018-12-01T11:56:06.497Z,37.07
2018-12-01T11:58:36.641Z,36.71
2018-12-01T12:01:06.794Z,36.72
2018-12-01T12:03:36.508Z,37.15
2018-12-01T12:06:06.418Z,36.95
2018-12-01T12:08:36.490Z,36.37
2018-12-01T12:11:06.205Z,37.31
2018-12-01T12:13:35.889Z,37.28
2018-12-01T12:16:06.045Z,36.94
2018-12-01T12:18:35.897Z,37.34
2018-12-01T12:21:05.806Z,37.59
2018-12-01T12:23:35.569Z,37.20
2018-12-01T12:26:05.490Z,37.72
2018-12-01T12:28:35.166Z,37.43
2018-12-01T12:31:04.981Z,37.39
2018-12-01T12:33:34.692Z,37.60
2018-12-01T12:36:04.294Z,37.25
2018-12-01T12:38:34.025Z,37.48
2018-12-01T12:41:03.783Z,37.32
2018-12-01T12:43:33.580Z,37.72
2018-12-01T12:46:03.373Z,37.73
2018-12-01T12:48:33.173Z,37.68
2018-12-01T12:51:02.961Z,37.50
2018-12-01T12:53:32.694Z,37.67
2018-12-01T12:56:02.549Z,37.67
2018-12-01T12:58:32.350Z,38.15
2018-12-01T13:01:02.070Z,37.37
2018-12-01T13:03:31.879Z,38.08
2018-12-01T13:06:01.697Z,38.00
2018-12-01T13:08:31.464Z,38.27
2018-12-01T13:11:01.409Z,38.00
2018-12-01T13:13:31.184Z,37.88
2018-12-01T13:16:01.013Z,38.01
2018-12-01T13:18:30.809Z,37.22
2018-12-01T13:21:00.592Z,37.53
2018-12-01T13:23:30.307Z,37.99
2018-12-01T13:26:00.081Z,37.55
2018-12-01T13:28:29.893Z,38.38
2018-12-01T13:31:00.630Z,37.80
2018-12-01T13:33:30.436Z,38.06
2018-12-01T13:36:00.243Z,37.85
2018-12-01T13:38:30.022Z,38.22
2018-12-01T13:40:59.960Z,38.16
2018-12-01T13:43:29.712Z,37.64
2018-12-01T13:45:59.477Z,37.90
2018-12-01T13:48:29.229Z,38.04
2018-12-01T13:50:58.836Z,38.34
2018-12-01T13:53:28.575Z,37.92
2018-12-01T13:55:58.277Z,38.12
2018-12-01T13:58:28.108Z,38.23
2018-12-01T14:00:57.753Z,38.19
2018-12-01T14:03:27.505Z,38.01
2018-12-01T14:05:57.167Z,38.24
2018-12-01T14:08:26.864Z,38.71
2018-12-01T14:10:56.616Z,37.79
2018-12-01T14:13:26.377Z,38.05
2018-12-01T14:15:56.166Z,38.12
2018-12-01T14:18:25.982Z,38.47
2018-12-01T14:20:55.761Z,38.09
2018-12-01T14:23:25.489Z,38.14
2018-12-01T14:25:55.166Z,38.38
2018-12-01T14:28:24.787Z,38.11
2018-12-01T14:30:54.968Z,38.31
2018-12-01T14:33:24.845Z,38.14
2018-12-01T14:35:55.259Z,38.40
2018-12-01T14:38:24.849Z,38.40
2018-12-01T14:40:54.577Z,37.98
2018-12-01T14:43:24.358Z,37.87
2018-12-01T14:45:54.128Z,37.79
2018-12-01T14:48:24.097Z,37.99
2018-12-01T14:50:54.171Z,37.99
2018-12-01T14:53:23.999Z,38.45
2018-12-01T14:55:53.758Z,37.75
2018-12-01T14:58:23.593Z,38.28
2018-12-01T15:00:53.276Z,38.04
2018-12-01T15:03:23.114Z,38.11
2018-12-01T15:05:52.874Z,38.44
2018-12-01T15:08:22.602Z,38.12
2018-12-01T15:10:52.457Z,38.17
2018-12-01T15:13:22.169Z,38.24
2018-12-01T15:15:51.985Z,37.98
2018-12-01T15:18:21.792Z,37.98
2018-12-01T15:20:51.598Z,37.74
2018-12-01T15:23:21.291Z,38.23
2018-12-01T15:25:51.025Z,37.95
2018-12-01T15:28:20.883Z,37.97
2018-12-01T15:30:50.669Z,38.29
2018-12-01T15:33:20.416Z,37.97
2018-12-01T15:35:50.128Z,37.80
2018-12-01T15:38:19.964Z,37.92
2018-12-01T15:40:51.420Z,37.91
2018-12-01T15:43:21.170Z,38.05
2018-12-01T15:45:50.876Z,38.19
2018-12-01T15:48:20.605Z,38.01
2018-12-01T15:50:50.295Z,37.69
2018-12-01T15:53:20.024Z,37.81
2018-12-01T15:55:49.877Z,38.11
2018-12-01T15:58:19.594Z,37.77
2018-12-01T16:00:49.359Z,37.50
2018-12-01T16:03:19.212Z,37.70
2018-12-01T16:05:48.921Z,37.51
2018-12-01T16:08:18.708Z,38.19
2018-12-01T16:10:48.540Z,37.86
2018-12-01T16:13:19.960Z,37.75
2018-12-01T16:16:09.525Z,37.75
2018-12-01T16:18:39.274Z,37.37
2018-12-01T16:21:08.996Z,37.45
2018-12-01T16:23:38.621Z,37.42
2018-12-01T16:26:08.365Z,37.47
2018-12-01T16:28:38.108Z,37.22
2018-12-01T16:31:07.853Z,37.96
2018-12-01T16:33:37.535Z,37.65
2018-12-01T16:36:07.648Z,37.97
2018-12-01T16:38:37.657Z,38.01
2018-12-01T16:41:15.322Z,37.82
2018-12-01T16:43:45.162Z,38.02
2018-12-01T16:46:14.841Z,37.58
2018-12-01T16:48:44.686Z,38.06
2018-12-01T16:51:14.468Z,37.88
2018-12-01T16:53:44.297Z,38.45
2018-12-01T16:56:14.057Z,38.02
2018-12-01T16:58:43.790Z,38.13
2018-12-01T17:01:13.610Z,37.89
2018-12-01T17:03:43.433Z,37.66
2018-12-01T17:06:16.110Z,38.03
2018-12-01T17:08:45.905Z,37.69
2018-12-01T17:11:15.697Z,37.38
2018-12-01T17:13:45.575Z,37.80
2018-12-01T17:16:15.357Z,38.05
2018-12-01T17:18:45.296Z,37.96
2018-12-01T17:21:15.120Z,37.65
2018-12-01T17:23:44.880Z,38.25
2018-12-01T17:26:14.697Z,38.32
2018-12-01T17:28:44.473Z,38.54
2018-12-01T17:31:14.176Z,37.75
2018-12-01T17:33:44.688Z,38.19
2018-12-01T17:36:14.449Z,37.79
2018-12-01T17:38:44.193Z,37.72
2018-12-01T17:41:17.897Z,37.93
2018-12-01T17:43:51.292Z,38.33
2018-12-01T17:46:21.405Z,37.96
2018-12-01T17:48:51.415Z,37.90
2018-12-01T17:51:21.177Z,37.83
2018-12-01T17:53:52.837Z,37.87
2018-12-01T17:56:22.577Z,37.96
2018-12-01T17:58:52.410Z,37.83
2018-12-01T18:01:22.226Z,38.37
2018-12-01T18:03:52.041Z,38.28
2018-12-01T18:06:21.825Z,37.97
2018-12-01T18:08:51.662Z,38.08
2018-12-01T18:11:21.449Z,37.78
2018-12-01T18:13:51.277Z,37.97
2018-12-01T18:16:20.929Z,38.01
2018-12-01T18:18:50.653Z,37.84
2018-12-01T18:21:20.417Z,37.97
2018-12-01T18:23:50.228Z,38.12
2018-12-01T18:26:19.937Z,38.02
2018-12-01T18:28:50.882Z,37.84
2018-12-01T18:31:23.245Z,37.85
2018-12-01T18:34:05.850Z,37.84
2018-12-01T18:36:35.736Z,38.36
2018-12-01T18:39:08.752Z,37.93
2018-12-01T18:41:38.369Z,38.62
2018-12-01T18:44:08.125Z,38.31
2018-12-01T18:46:37.981Z,37.68
2018-12-01T18:49:07.789Z,37.51
2018-12-01T18:51:37.529Z,38.29
2018-12-01T18:54:07.374Z,38.02
2018-12-01T18:56:37.209Z,38.59
2018-12-01T18:59:07.300Z,37.82
2018-12-01T19:01:37.113Z,38.31
2018-12-01T19:04:06.897Z,38.56
2018-12-01T19:06:36.609Z,37.93
2018-12-01T19:09:08.015Z,37.87
2018-12-01T19:11:37.789Z,38.32
2018-12-01T19:14:07.846Z,38.69
2018-12-01T19:16:37.655Z,38.08
2018-12-01T19:19:07.437Z,37.82
2018-12-01T19:21:37.269Z,38.06
2018-12-01T19:24:06.986Z,38.19
2018-12-01T19:26:36.768Z,37.96
2018-12-01T19:29:07.228Z,38.49
2018-12-01T19:31:36.969Z,38.40
2018-12-01T19:34:07.256Z,38.25
2018-12-01T19:36:36.888Z,38.25
2018-12-01T19:39:08.242Z,38.15
2018-12-01T19:41:37.965Z,37.83
2018-12-01T19:44:08.294Z,37.84
2018-12-01T19:46:37.975Z,37.47
2018-12-01T19:49:07.833Z,37.98
2018-12-01T19:51:37.620Z,38.52
2018-12-01T19:54:07.716Z,37.98
2018-12-01T19:56:37.958Z,38.23
2018-12-01T20:04:04.683Z,38.48
2018-12-01T20:06:34.505Z,38.19
2018-12-01T20:09:04.465Z,38.31
2018-12-01T20:11:34.228Z,38.10
2018-12-01T20:14:04.749Z,37.82
2018-12-01T20:16:37.767Z,38.21
2018-12-01T20:19:08.091Z,38.03
2018-12-01T20:21:37.831Z,38.16
2018-12-01T20:24:08.405Z,38.16
2018-12-01T20:26:39.089Z,37.83
2018-12-01T20:29:08.942Z,38.29
2018-12-01T20:31:38.659Z,38.32
2018-12-01T20:34:08.671Z,38.56
2018-12-01T20:36:45.442Z,38.22
2018-12-01T20:39:18.393Z,38.02
2018-12-01T20:41:48.182Z,38.07
2018-12-01T20:44:17.920Z,37.95
2018-12-01T20:46:47.519Z,38.73
2018-12-01T20:49:17.321Z,38.64
2018-12-01T20:51:46.924Z,37.80
2018-12-01T20:54:27.281Z,38.06
2018-12-01T20:57:00.865Z,38.26
2018-12-01T20:59:30.890Z,37.62
2018-12-01T21:02:00.933Z,38.29
2018-12-01T21:04:30.741Z,37.99
2018-12-01T21:07:01.376Z,37.94
2018-12-01T21:09:32.139Z,38.24
2018-12-01T21:12:02.300Z,38.14
2018-12-01T21:14:32.076Z,37.95
2018-12-01T21:17:01.886Z,38.23
2018-12-01T21:19:31.737Z,37.77
2018-12-01T21:22:01.433Z,38.09
2018-12-01T21:24:31.200Z,38.34
2018-12-01T21:27:01.021Z,38.34
2018-12-01T21:29:30.772Z,37.79
2018-12-01T21:32:00.510Z,37.78
2018-12-01T21:34:30.253Z,38.27
2018-12-01T21:37:00.063Z,38.09
2018-12-01T21:39:29.873Z,37.87
2018-12-01T21:41:59.573Z,38.52
2018-12-01T21:44:29.397Z,37.55
2018-12-01T21:46:59.099Z,38.19
2018-12-01T21:49:28.886Z,39.29
2018-12-01T21:51:58.617Z,39.10
2018-12-01T21:54:28.432Z,39.20
2018-12-01T21:56:58.221Z,36.71
2018-12-01T21:59:27.958Z,37.23
2018-12-01T22:01:57.665Z,36.83
2018-12-01T22:04:27.476Z,37.06
2018-12-01T22:06:57.262Z,35.88
2018-12-01T22:09:27.087Z,35.18
2018-12-01T22:11:56.868Z,36.45
2018-12-01T22:14:26.704Z,35.57
2018-12-01T22:16:56.705Z,34.86
2018-12-01T22:19:26.539Z,35.07
2018-12-01T22:21:56.322Z,35.31
2018-12-01T22:24:26.159Z,35.21
2018-12-01T22:26:55.948Z,35.30
2018-12-01T22:29:25.817Z,35.32
2018-12-01T22:31:55.674Z,34.97
2018-12-01T22:34:26.593Z,34.66
2018-12-01T22:36:56.329Z,34.52
2018-12-01T22:39:25.229Z,34.07
2018-12-01T22:41:55.115Z,34.32
2018-12-01T22:44:24.797Z,34.44
2018-12-01T22:46:54.641Z,33.63
2018-12-01T22:49:24.421Z,33.84
2018-12-01T22:51:53.988Z,33.07
2018-12-01T22:54:23.761Z,32.59
2018-12-01T22:56:53.433Z,33.01
2018-12-01T22:59:23.070Z,31.81
2018-12-01T23:01:53.369Z,32.06
2018-12-01T23:04:23.077Z,31.53
2018-12-01T23:06:52.830Z,31.42
2018-12-01T23:09:22.663Z,30.73
2018-12-01T23:11:52.426Z,30.98
2018-12-01T23:14:22.218Z,30.06
2018-12-01T23:16:51.992Z,29.55
2018-12-01T23:19:21.805Z,30.41
2018-12-01T23:21:51.471Z,31.06
2018-12-01T23:24:21.306Z,30.78
2018-12-01T23:26:51.030Z,30.37
2018-12-01T23:29:20.905Z,29.33
2018-12-01T23:31:50.652Z,29.03
2018-12-01T23:34:20.365Z,28.73
2018-12-01T23:36:50.172Z,28.97
2018-12-01T23:39:19.885Z,28.73
2018-12-01T23:41:49.662Z,28.81
2018-12-01T23:44:32.202Z,28.70
2018-12-01T23:47:01.945Z,28.13
2018-12-01T23:49:31.649Z,27.94
2018-12-01T23:52:01.468Z,27.46
2018-12-01T23:54:31.244Z,27.35
2018-12-01T23:57:01.040Z,27.20
2018-12-01T23:59:30.665Z,26.79
